Flight Briefing for CPX429

Departure Arrival
Portland International Jetport (KPWM)
Click to view FAA NOTAMS
Washington Dulles International Airport (KIAD)
Click to view FAA NOTAMS
Departure Time Arrival Time
N/A N/A
Aircraft Distance
B757-200SF 429nm
Departure METAR Arrival METAR
KPWM 192251Z 31010G20KT 10SM CLR M05/M20 A3044 RMK AO2 SLP310 T10501200 KIAD 192252Z 35004KT 10SM OVC200 03/M13 A3059 RMK AO2 SLP363 T00281133
Suggested Route
NUBLE3 BAF HYPER7


View recent IFR Routes data
Notes
LOBSTER KING

Charts and Procedures

Charts for KPWM
No chart available
Charts for KIAD
No chart available

Ventusky Weather




{"cat":null,"equip":null,"transponder":null,"pbn":"PBN\/","maxpax":null,"oew":"0.0","mzfw":"0.0","mtow":"0.0","mlw":"0.0","maxfuel":"0.0"} DEVELOPMENTAL TEST USE ONLY